sensor_id;sensor_type;location;lat;lon;timestamp;temperature;humidity
16966;DHT22;8599;47.852;12.070;2023-12-20T00:01:00;4.60;99.90
16966;DHT22;8599;47.852;12.070;2023-12-20T00:03:27;4.60;99.90
16966;DHT22;8599;47.852;12.070;2023-12-20T00:05:54;4.70;99.90
16966;DHT22;8599;47.852;12.070;2023-12-20T00:08:21;4.60;99.90
16966;DHT22;8599;47.852;12.070;2023-12-20T00:10:48;4.60;99.90
16966;DHT22;8599;47.852;12.070;2023-12-20T00:13:16;4.60;99.90
16966;DHT22;8599;47.852;12.070;2023-12-20T00:15:42;4.60;99.90
16966;DHT22;8599;47.852;12.070;2023-12-20T00:18:09;4.50;99.90
16966;DHT22;8599;47.852;12.070;2023-12-20T00:20:36;4.40;99.90
16966;DHT22;8599;47.852;12.070;2023-12-20T00:23:03;4.40;99.90
16966;DHT22;8599;47.852;12.070;2023-12-20T00:25:30;4.40;99.90
16966;DHT22;8599;47.852;12.070;2023-12-20T00:27:57;4.30;99.90
16966;DHT22;8599;47.852;12.070;2023-12-20T00:30:25;4.40;99.90
16966;DHT22;8599;47.852;12.070;2023-12-20T00:32:52;4.30;99.90
16966;DHT22;8599;47.852;12.070;2023-12-20T00:35:19;4.30;99.90
16966;DHT22;8599;47.852;12.070;2023-12-20T00:37:46;4.40;99.90
16966;DHT22;8599;47.852;12.070;2023-12-20T00:40:13;4.40;99.90
16966;DHT22;8599;47.852;12.070;2023-12-20T00:42:40;4.40;99.90
16966;DHT22;8599;47.852;12.070;2023-12-20T00:45:07;4.40;99.90
16966;DHT22;8599;47.852;12.070;2023-12-20T00:47:35;4.40;99.90
16966;DHT22;8599;47.852;12.070;2023-12-20T00:50:02;4.40;99.90
16966;DHT22;8599;47.852;12.070;2023-12-20T00:52:29;4.40;99.90
16966;DHT22;8599;47.852;12.070;2023-12-20T00:54:56;4.40;99.90
16966;DHT22;8599;47.852;12.070;2023-12-20T00:57:23;4.40;99.90
16966;DHT22;8599;47.852;12.070;2023-12-20T00:59:51;4.40;99.90
16966;DHT22;8599;47.852;12.070;2023-12-20T01:02:17;4.40;99.90
16966;DHT22;8599;47.852;12.070;2023-12-20T01:04:46;4.40;99.90
16966;DHT22;8599;47.852;12.070;2023-12-20T01:07:13;4.40;99.90
16966;DHT22;8599;47.852;12.070;2023-12-20T01:09:40;4.30;99.90
16966;DHT22;8599;47.852;12.070;2023-12-20T01:12:07;4.30;99.90
16966;DHT22;8599;47.852;12.070;2023-12-20T01:14:33;4.30;99.90
16966;DHT22;8599;47.852;12.070;2023-12-20T01:17:02;4.40;99.90
16966;DHT22;8599;47.852;12.070;2023-12-20T01:19:29;4.40;99.90
16966;DHT22;8599;47.852;12.070;2023-12-20T01:21:57;4.40;99.90
16966;DHT22;8599;47.852;12.070;2023-12-20T01:24:24;4.40;99.90
16966;DHT22;8599;47.852;12.070;2023-12-20T01:26:51;4.40;99.90
16966;DHT22;8599;47.852;12.070;2023-12-20T01:29:17;4.40;99.90
16966;DHT22;8599;47.852;12.070;2023-12-20T01:31:45;4.40;99.90
16966;DHT22;8599;47.852;12.070;2023-12-20T01:34:11;4.40;99.90
16966;DHT22;8599;47.852;12.070;2023-12-20T01:36:39;4.40;99.90
16966;DHT22;8599;47.852;12.070;2023-12-20T01:39:07;4.40;99.90
16966;DHT22;8599;47.852;12.070;2023-12-20T01:41:34;4.40;99.90
16966;DHT22;8599;47.852;12.070;2023-12-20T01:44:01;4.30;99.90
16966;DHT22;8599;47.852;12.070;2023-12-20T01:46:28;4.40;99.90
16966;DHT22;8599;47.852;12.070;2023-12-20T01:48:55;4.30;99.90
16966;DHT22;8599;47.852;12.070;2023-12-20T01:51:22;4.30;99.90
16966;DHT22;8599;47.852;12.070;2023-12-20T01:53:49;4.30;99.90
16966;DHT22;8599;47.852;12.070;2023-12-20T01:56:17;4.20;99.90
16966;DHT22;8599;47.852;12.070;2023-12-20T01:58:46;4.00;99.90
16966;DHT22;8599;47.852;12.070;2023-12-20T02:01:14;4.00;99.90
16966;DHT22;8599;47.852;12.070;2023-12-20T02:03:41;3.90;99.90
16966;DHT22;8599;47.852;12.070;2023-12-20T02:06:09;4.00;99.90
16966;DHT22;8599;47.852;12.070;2023-12-20T02:08:36;4.00;99.90
16966;DHT22;8599;47.852;12.070;2023-12-20T02:11:03;4.10;99.90
16966;DHT22;8599;47.852;12.070;2023-12-20T02:13:31;4.10;99.90
16966;DHT22;8599;47.852;12.070;2023-12-20T02:15:58;4.10;99.90
16966;DHT22;8599;47.852;12.070;2023-12-20T02:18:25;4.10;99.90
16966;DHT22;8599;47.852;12.070;2023-12-20T02:20:52;4.10;99.90
16966;DHT22;8599;47.852;12.070;2023-12-20T02:23:21;4.00;99.90
16966;DHT22;8599;47.852;12.070;2023-12-20T02:25:48;4.00;99.90
16966;DHT22;8599;47.852;12.070;2023-12-20T02:28:15;4.00;99.90
16966;DHT22;8599;47.852;12.070;2023-12-20T02:30:42;4.00;99.90
16966;DHT22;8599;47.852;12.070;2023-12-20T02:33:12;4.00;99.90
16966;DHT22;8599;47.852;12.070;2023-12-20T02:35:40;4.00;99.90
16966;DHT22;8599;47.852;12.070;2023-12-20T02:38:07;4.00;99.90
16966;DHT22;8599;47.852;12.070;2023-12-20T02:40:35;4.00;99.90
16966;DHT22;8599;47.852;12.070;2023-12-20T02:43:02;4.00;99.90
16966;DHT22;8599;47.852;12.070;2023-12-20T02:45:29;4.00;99.90
16966;DHT22;8599;47.852;12.070;2023-12-20T02:47:56;4.00;99.90
16966;DHT22;8599;47.852;12.070;2023-12-20T02:50:23;4.00;99.90
16966;DHT22;8599;47.852;12.070;2023-12-20T02:52:50;4.10;99.90
16966;DHT22;8599;47.852;12.070;2023-12-20T02:55:16;4.10;99.90
16966;DHT22;8599;47.852;12.070;2023-12-20T02:57:45;4.10;99.90
16966;DHT22;8599;47.852;12.070;2023-12-20T03:00:12;4.10;99.90
16966;DHT22;8599;47.852;12.070;2023-12-20T03:02:39;4.20;99.90
16966;DHT22;8599;47.852;12.070;2023-12-20T03:05:06;4.20;99.90
16966;DHT22;8599;47.852;12.070;2023-12-20T03:07:33;4.10;99.90
16966;DHT22;8599;47.852;12.070;2023-12-20T03:10:00;4.30;99.90
16966;DHT22;8599;47.852;12.070;2023-12-20T03:12:27;4.30;99.90
16966;DHT22;8599;47.852;12.070;2023-12-20T03:14:55;4.30;99.90
16966;DHT22;8599;47.852;12.070;2023-12-20T03:17:22;4.30;99.90
16966;DHT22;8599;47.852;12.070;2023-12-20T03:19:49;4.30;99.90
16966;DHT22;8599;47.852;12.070;2023-12-20T03:22:18;4.20;99.90
16966;DHT22;8599;47.852;12.070;2023-12-20T03:24:45;4.20;99.90
16966;DHT22;8599;47.852;12.070;2023-12-20T03:27:12;4.40;99.90
16966;DHT22;8599;47.852;12.070;2023-12-20T03:29:39;4.40;99.90
16966;DHT22;8599;47.852;12.070;2023-12-20T03:32:07;4.40;99.90
16966;DHT22;8599;47.852;12.070;2023-12-20T03:34:34;4.50;99.90
16966;DHT22;8599;47.852;12.070;2023-12-20T03:37:01;4.50;99.90
16966;DHT22;8599;47.852;12.070;2023-12-20T03:39:28;4.40;99.90
16966;DHT22;8599;47.852;12.070;2023-12-20T03:41:55;4.40;99.90
16966;DHT22;8599;47.852;12.070;2023-12-20T03:44:22;4.30;99.90
16966;DHT22;8599;47.852;12.070;2023-12-20T03:46:48;4.20;99.90
16966;DHT22;8599;47.852;12.070;2023-12-20T03:49:17;4.20;99.90
16966;DHT22;8599;47.852;12.070;2023-12-20T03:51:43;4.30;99.90
16966;DHT22;8599;47.852;12.070;2023-12-20T03:54:10;4.30;99.90
16966;DHT22;8599;47.852;12.070;2023-12-20T03:56:37;4.30;99.90
16966;DHT22;8599;47.852;12.070;2023-12-20T03:59:04;4.40;99.90
16966;DHT22;8599;47.852;12.070;2023-12-20T04:01:31;4.40;99.90
16966;DHT22;8599;47.852;12.070;2023-12-20T04:03:58;4.50;99.90
16966;DHT22;8599;47.852;12.070;2023-12-20T04:06:26;4.50;99.90
16966;DHT22;8599;47.852;12.070;2023-12-20T04:08:53;4.80;99.90
16966;DHT22;8599;47.852;12.070;2023-12-20T04:11:20;5.20;99.90
16966;DHT22;8599;47.852;12.070;2023-12-20T04:13:47;5.30;99.90
16966;DHT22;8599;47.852;12.070;2023-12-20T04:16:13;5.40;99.90
16966;DHT22;8599;47.852;12.070;2023-12-20T04:18:40;6.00;99.90
16966;DHT22;8599;47.852;12.070;2023-12-20T04:21:07;6.20;99.90
16966;DHT22;8599;47.852;12.070;2023-12-20T04:23:35;6.30;99.90
16966;DHT22;8599;47.852;12.070;2023-12-20T04:26:02;6.50;99.90
16966;DHT22;8599;47.852;12.070;2023-12-20T04:28:29;6.70;99.90
16966;DHT22;8599;47.852;12.070;2023-12-20T04:30:56;6.90;99.90
16966;DHT22;8599;47.852;12.070;2023-12-20T04:33:23;7.10;99.90
16966;DHT22;8599;47.852;12.070;2023-12-20T04:35:50;7.00;99.90
16966;DHT22;8599;47.852;12.070;2023-12-20T04:38:17;7.10;99.90
16966;DHT22;8599;47.852;12.070;2023-12-20T04:40:45;7.10;99.90
16966;DHT22;8599;47.852;12.070;2023-12-20T04:43:13;7.00;99.90
16966;DHT22;8599;47.852;12.070;2023-12-20T04:45:40;7.10;99.90
16966;DHT22;8599;47.852;12.070;2023-12-20T04:48:07;7.10;99.90
16966;DHT22;8599;47.852;12.070;2023-12-20T04:50:34;7.20;99.90
16966;DHT22;8599;47.852;12.070;2023-12-20T04:53:01;7.30;99.90
16966;DHT22;8599;47.852;12.070;2023-12-20T04:55:29;7.30;99.90
16966;DHT22;8599;47.852;12.070;2023-12-20T04:57:57;7.20;99.90
16966;DHT22;8599;47.852;12.070;2023-12-20T05:00:24;7.30;99.90
16966;DHT22;8599;47.852;12.070;2023-12-20T05:02:51;7.30;99.90
16966;DHT22;8599;47.852;12.070;2023-12-20T05:05:18;7.20;99.90
16966;DHT22;8599;47.852;12.070;2023-12-20T05:07:45;7.30;99.90
16966;DHT22;8599;47.852;12.070;2023-12-20T05:10:11;7.20;99.90
16966;DHT22;8599;47.852;12.070;2023-12-20T05:12:38;7.40;99.90
16966;DHT22;8599;47.852;12.070;2023-12-20T05:15:08;7.40;99.90
16966;DHT22;8599;47.852;12.070;2023-12-20T05:17:35;7.30;99.90
16966;DHT22;8599;47.852;12.070;2023-12-20T05:20:02;7.20;99.90
16966;DHT22;8599;47.852;12.070;2023-12-20T05:22:29;7.20;99.90
16966;DHT22;8599;47.852;12.070;2023-12-20T05:24:55;7.10;99.90
16966;DHT22;8599;47.852;12.070;2023-12-20T05:27:22;7.10;99.90
16966;DHT22;8599;47.852;12.070;2023-12-20T05:29:48;7.10;99.90
16966;DHT22;8599;47.852;12.070;2023-12-20T05:32:17;7.00;99.90
16966;DHT22;8599;47.852;12.070;2023-12-20T05:34:43;7.00;99.90
16966;DHT22;8599;47.852;12.070;2023-12-20T05:37:10;7.00;99.90
16966;DHT22;8599;47.852;12.070;2023-12-20T05:39:37;6.90;99.90
16966;DHT22;8599;47.852;12.070;2023-12-20T05:42:05;6.80;99.90
16966;DHT22;8599;47.852;12.070;2023-12-20T05:44:31;6.90;99.90
16966;DHT22;8599;47.852;12.070;2023-12-20T05:46:58;6.80;99.90
16966;DHT22;8599;47.852;12.070;2023-12-20T05:49:26;6.80;99.90
16966;DHT22;8599;47.852;12.070;2023-12-20T05:51:53;6.80;99.90
16966;DHT22;8599;47.852;12.070;2023-12-20T05:54:20;6.70;99.90
16966;DHT22;8599;47.852;12.070;2023-12-20T05:56:47;6.60;99.90
16966;DHT22;8599;47.852;12.070;2023-12-20T05:59:14;6.60;99.90
16966;DHT22;8599;47.852;12.070;2023-12-20T06:01:41;6.50;99.90
16966;DHT22;8599;47.852;12.070;2023-12-20T06:04:08;6.50;99.90
16966;DHT22;8599;47.852;12.070;2023-12-20T06:06:40;6.50;99.90
16966;DHT22;8599;47.852;12.070;2023-12-20T06:09:07;6.50;99.90
16966;DHT22;8599;47.852;12.070;2023-12-20T06:11:34;6.60;99.90
16966;DHT22;8599;47.852;12.070;2023-12-20T06:14:01;6.60;99.90
16966;DHT22;8599;47.852;12.070;2023-12-20T06:16:28;6.70;99.90
16966;DHT22;8599;47.852;12.070;2023-12-20T06:18:55;6.80;99.90
16966;DHT22;8599;47.852;12.070;2023-12-20T06:21:22;6.80;99.90
16966;DHT22;8599;47.852;12.070;2023-12-20T06:23:50;6.70;99.90
16966;DHT22;8599;47.852;12.070;2023-12-20T06:26:17;6.80;99.90
16966;DHT22;8599;47.852;12.070;2023-12-20T06:28:44;6.80;99.90
16966;DHT22;8599;47.852;12.070;2023-12-20T06:31:11;6.80;99.90
16966;DHT22;8599;47.852;12.070;2023-12-20T06:33:38;6.90;99.90
16966;DHT22;8599;47.852;12.070;2023-12-20T06:36:06;7.00;99.90
16966;DHT22;8599;47.852;12.070;2023-12-20T06:38:33;6.90;99.90
16966;DHT22;8599;47.852;12.070;2023-12-20T06:41:01;6.90;99.90
16966;DHT22;8599;47.852;12.070;2023-12-20T06:43:28;6.80;99.90
16966;DHT22;8599;47.852;12.070;2023-12-20T06:45:55;6.70;99.90
16966;DHT22;8599;47.852;12.070;2023-12-20T06:48:22;6.60;99.90
16966;DHT22;8599;47.852;12.070;2023-12-20T06:50:49;6.70;99.90
16966;DHT22;8599;47.852;12.070;2023-12-20T06:53:16;6.70;99.90
16966;DHT22;8599;47.852;12.070;2023-12-20T06:55:43;6.60;99.90
16966;DHT22;8599;47.852;12.070;2023-12-20T06:58:11;6.50;99.90
16966;DHT22;8599;47.852;12.070;2023-12-20T07:00:38;6.70;99.90
16966;DHT22;8599;47.852;12.070;2023-12-20T07:03:04;6.70;99.90
16966;DHT22;8599;47.852;12.070;2023-12-20T07:05:31;6.60;99.90
16966;DHT22;8599;47.852;12.070;2023-12-20T07:07:58;6.50;99.90
16966;DHT22;8599;47.852;12.070;2023-12-20T07:10:25;6.50;99.90
16966;DHT22;8599;47.852;12.070;2023-12-20T07:12:52;6.50;99.90
16966;DHT22;8599;47.852;12.070;2023-12-20T07:15:22;6.60;99.90
16966;DHT22;8599;47.852;12.070;2023-12-20T07:17:49;6.60;99.90
16966;DHT22;8599;47.852;12.070;2023-12-20T07:20:16;6.50;99.90
16966;DHT22;8599;47.852;12.070;2023-12-20T07:22:43;6.50;99.90
16966;DHT22;8599;47.852;12.070;2023-12-20T07:25:10;6.50;99.90
16966;DHT22;8599;47.852;12.070;2023-12-20T07:27:37;6.50;99.90
16966;DHT22;8599;47.852;12.070;2023-12-20T07:30:04;6.60;99.90
16966;DHT22;8599;47.852;12.070;2023-12-20T07:32:33;6.60;99.90
16966;DHT22;8599;47.852;12.070;2023-12-20T07:35:00;6.50;99.90
16966;DHT22;8599;47.852;12.070;2023-12-20T07:37:28;6.50;99.90
16966;DHT22;8599;47.852;12.070;2023-12-20T07:39:55;6.50;99.90
16966;DHT22;8599;47.852;12.070;2023-12-20T07:42:22;6.50;99.90
16966;DHT22;8599;47.852;12.070;2023-12-20T07:44:48;6.50;99.90
16966;DHT22;8599;47.852;12.070;2023-12-20T07:47:15;6.50;99.90
16966;DHT22;8599;47.852;12.070;2023-12-20T07:49:48;6.40;99.90
16966;DHT22;8599;47.852;12.070;2023-12-20T07:52:17;6.30;99.90
16966;DHT22;8599;47.852;12.070;2023-12-20T07:54:43;6.40;99.90
16966;DHT22;8599;47.852;12.070;2023-12-20T07:57:10;6.40;99.90
16966;DHT22;8599;47.852;12.070;2023-12-20T07:59:37;6.40;99.90
16966;DHT22;8599;47.852;12.070;2023-12-20T08:02:04;6.40;99.90
16966;DHT22;8599;47.852;12.070;2023-12-20T08:04:31;6.40;99.90
16966;DHT22;8599;47.852;12.070;2023-12-20T08:06:59;6.30;99.90
16966;DHT22;8599;47.852;12.070;2023-12-20T08:09:26;6.30;99.90
16966;DHT22;8599;47.852;12.070;2023-12-20T08:11:53;6.20;99.90
16966;DHT22;8599;47.852;12.070;2023-12-20T08:14:20;6.20;99.90
16966;DHT22;8599;47.852;12.070;2023-12-20T08:16:47;6.40;99.90
16966;DHT22;8599;47.852;12.070;2023-12-20T08:19:14;6.40;99.90
16966;DHT22;8599;47.852;12.070;2023-12-20T08:21:41;6.40;99.90
16966;DHT22;8599;47.852;12.070;2023-12-20T08:24:09;6.30;99.90
16966;DHT22;8599;47.852;12.070;2023-12-20T08:26:36;6.40;99.90
16966;DHT22;8599;47.852;12.070;2023-12-20T08:29:03;6.50;99.90
16966;DHT22;8599;47.852;12.070;2023-12-20T08:31:30;6.50;99.90
16966;DHT22;8599;47.852;12.070;2023-12-20T08:33:57;6.30;99.90
16966;DHT22;8599;47.852;12.070;2023-12-20T08:36:23;6.30;99.90
16966;DHT22;8599;47.852;12.070;2023-12-20T08:38:50;6.20;99.90
16966;DHT22;8599;47.852;12.070;2023-12-20T08:41:19;6.30;99.90
16966;DHT22;8599;47.852;12.070;2023-12-20T08:43:46;6.30;99.90
16966;DHT22;8599;47.852;12.070;2023-12-20T08:46:14;6.30;99.90
16966;DHT22;8599;47.852;12.070;2023-12-20T08:48:41;6.20;99.90
16966;DHT22;8599;47.852;12.070;2023-12-20T08:51:08;6.20;99.90
16966;DHT22;8599;47.852;12.070;2023-12-20T08:53:35;6.30;99.90
16966;DHT22;8599;47.852;12.070;2023-12-20T08:56:02;6.20;99.90
16966;DHT22;8599;47.852;12.070;2023-12-20T08:58:30;6.30;99.90
16966;DHT22;8599;47.852;12.070;2023-12-20T09:00:57;6.30;99.90
16966;DHT22;8599;47.852;12.070;2023-12-20T09:03:24;6.30;99.90
16966;DHT22;8599;47.852;12.070;2023-12-20T09:05:51;6.30;99.90
16966;DHT22;8599;47.852;12.070;2023-12-20T09:08:17;6.20;99.90
16966;DHT22;8599;47.852;12.070;2023-12-20T09:10:44;6.20;99.90
16966;DHT22;8599;47.852;12.070;2023-12-20T09:13:11;6.30;99.90
16966;DHT22;8599;47.852;12.070;2023-12-20T09:15:39;6.40;99.90
16966;DHT22;8599;47.852;12.070;2023-12-20T09:18:06;6.30;99.90
16966;DHT22;8599;47.852;12.070;2023-12-20T09:20:33;6.40;99.90
16966;DHT22;8599;47.852;12.070;2023-12-20T09:23:00;6.30;99.90
16966;DHT22;8599;47.852;12.070;2023-12-20T09:25:27;6.50;99.90
16966;DHT22;8599;47.852;12.070;2023-12-20T09:27:55;6.60;99.90
16966;DHT22;8599;47.852;12.070;2023-12-20T09:30:22;6.60;99.90
16966;DHT22;8599;47.852;12.070;2023-12-20T09:32:50;6.60;99.90
16966;DHT22;8599;47.852;12.070;2023-12-20T09:35:17;6.60;99.90
16966;DHT22;8599;47.852;12.070;2023-12-20T09:37:44;6.60;99.90
16966;DHT22;8599;47.852;12.070;2023-12-20T09:40:13;6.60;99.90
16966;DHT22;8599;47.852;12.070;2023-12-20T09:42:48;6.40;99.90
16966;DHT22;8599;47.852;12.070;2023-12-20T09:45:16;6.50;99.90
16966;DHT22;8599;47.852;12.070;2023-12-20T09:47:46;6.30;99.90
16966;DHT22;8599;47.852;12.070;2023-12-20T09:50:14;6.30;99.90
16966;DHT22;8599;47.852;12.070;2023-12-20T09:52:42;6.30;99.90
16966;DHT22;8599;47.852;12.070;2023-12-20T09:55:10;6.30;99.90
16966;DHT22;8599;47.852;12.070;2023-12-20T09:57:37;6.30;99.90
16966;DHT22;8599;47.852;12.070;2023-12-20T10:00:05;6.30;99.90
16966;DHT22;8599;47.852;12.070;2023-12-20T10:02:32;6.30;99.90
16966;DHT22;8599;47.852;12.070;2023-12-20T10:05:01;6.30;99.90
16966;DHT22;8599;47.852;12.070;2023-12-20T10:07:30;6.30;99.90
16966;DHT22;8599;47.852;12.070;2023-12-20T10:09:57;6.40;99.90
16966;DHT22;8599;47.852;12.070;2023-12-20T10:12:24;6.30;99.90
16966;DHT22;8599;47.852;12.070;2023-12-20T10:14:51;6.50;99.90
16966;DHT22;8599;47.852;12.070;2023-12-20T10:17:18;6.40;99.90
16966;DHT22;8599;47.852;12.070;2023-12-20T10:19:45;6.40;99.90
16966;DHT22;8599;47.852;12.070;2023-12-20T10:22:11;6.50;99.90
16966;DHT22;8599;47.852;12.070;2023-12-20T10:24:40;6.40;99.90
16966;DHT22;8599;47.852;12.070;2023-12-20T10:27:08;6.50;99.90
16966;DHT22;8599;47.852;12.070;2023-12-20T10:29:35;6.50;99.90
16966;DHT22;8599;47.852;12.070;2023-12-20T10:32:22;6.50;99.90
16966;DHT22;8599;47.852;12.070;2023-12-20T10:34:49;6.60;99.90
16966;DHT22;8599;47.852;12.070;2023-12-20T10:37:16;6.60;99.90
16966;DHT22;8599;47.852;12.070;2023-12-20T10:39:49;6.60;99.90
16966;DHT22;8599;47.852;12.070;2023-12-20T10:42:17;6.60;99.90
16966;DHT22;8599;47.852;12.070;2023-12-20T10:44:46;6.70;99.90
16966;DHT22;8599;47.852;12.070;2023-12-20T10:47:13;6.70;99.90
16966;DHT22;8599;47.852;12.070;2023-12-20T10:49:40;6.80;99.90
16966;DHT22;8599;47.852;12.070;2023-12-20T10:52:09;6.80;99.90
16966;DHT22;8599;47.852;12.070;2023-12-20T10:54:38;6.80;99.90
16966;DHT22;8599;47.852;12.070;2023-12-20T10:57:08;6.80;99.90
16966;DHT22;8599;47.852;12.070;2023-12-20T10:59:39;6.80;99.90
16966;DHT22;8599;47.852;12.070;2023-12-20T11:02:06;6.70;99.90
16966;DHT22;8599;47.852;12.070;2023-12-20T11:04:43;6.80;99.90
16966;DHT22;8599;47.852;12.070;2023-12-20T11:07:20;6.90;99.90
16966;DHT22;8599;47.852;12.070;2023-12-20T11:09:56;6.90;99.90
16966;DHT22;8599;47.852;12.070;2023-12-20T11:12:35;6.90;99.90
16966;DHT22;8599;47.852;12.070;2023-12-20T11:15:07;6.90;99.90
16966;DHT22;8599;47.852;12.070;2023-12-20T11:17:34;6.80;99.90
16966;DHT22;8599;47.852;12.070;2023-12-20T11:20:06;6.90;99.90
16966;DHT22;8599;47.852;12.070;2023-12-20T11:22:32;7.00;99.90
16966;DHT22;8599;47.852;12.070;2023-12-20T11:25:04;7.00;99.90
16966;DHT22;8599;47.852;12.070;2023-12-20T11:27:33;7.10;99.90
16966;DHT22;8599;47.852;12.070;2023-12-20T11:30:03;7.10;99.90
16966;DHT22;8599;47.852;12.070;2023-12-20T11:32:34;7.10;99.90
16966;DHT22;8599;47.852;12.070;2023-12-20T11:35:16;7.00;99.90
16966;DHT22;8599;47.852;12.070;2023-12-20T11:37:43;6.90;99.90
16966;DHT22;8599;47.852;12.070;2023-12-20T11:40:12;7.00;99.90
16966;DHT22;8599;47.852;12.070;2023-12-20T11:42:42;7.00;99.90
16966;DHT22;8599;47.852;12.070;2023-12-20T11:45:09;7.00;99.90
16966;DHT22;8599;47.852;12.070;2023-12-20T11:47:36;7.00;99.90
16966;DHT22;8599;47.852;12.070;2023-12-20T11:50:04;7.00;99.90
16966;DHT22;8599;47.852;12.070;2023-12-20T11:52:31;7.10;99.90
16966;DHT22;8599;47.852;12.070;2023-12-20T11:54:58;7.00;99.90
16966;DHT22;8599;47.852;12.070;2023-12-20T11:57:25;7.00;99.90
16966;DHT22;8599;47.852;12.070;2023-12-20T11:59:53;7.20;99.90
16966;DHT22;8599;47.852;12.070;2023-12-20T12:02:20;7.20;99.90
16966;DHT22;8599;47.852;12.070;2023-12-20T12:04:48;7.10;99.90
16966;DHT22;8599;47.852;12.070;2023-12-20T12:07:16;7.10;99.90
16966;DHT22;8599;47.852;12.070;2023-12-20T12:09:43;7.20;99.90
16966;DHT22;8599;47.852;12.070;2023-12-20T12:12:10;7.10;99.90
16966;DHT22;8599;47.852;12.070;2023-12-20T12:14:37;7.20;99.90
16966;DHT22;8599;47.852;12.070;2023-12-20T12:17:11;7.10;99.90
16966;DHT22;8599;47.852;12.070;2023-12-20T12:19:38;7.20;99.90
16966;DHT22;8599;47.852;12.070;2023-12-20T12:22:05;7.10;99.90
16966;DHT22;8599;47.852;12.070;2023-12-20T12:24:34;7.10;99.90
16966;DHT22;8599;47.852;12.070;2023-12-20T12:27:01;7.10;99.90
16966;DHT22;8599;47.852;12.070;2023-12-20T12:29:28;7.10;99.90
16966;DHT22;8599;47.852;12.070;2023-12-20T12:31:55;7.00;99.90
16966;DHT22;8599;47.852;12.070;2023-12-20T12:34:24;7.10;99.90
16966;DHT22;8599;47.852;12.070;2023-12-20T12:36:52;7.20;99.90
16966;DHT22;8599;47.852;12.070;2023-12-20T12:39:19;7.20;99.90
16966;DHT22;8599;47.852;12.070;2023-12-20T12:41:46;7.10;99.90
16966;DHT22;8599;47.852;12.070;2023-12-20T12:44:13;7.00;99.90
16966;DHT22;8599;47.852;12.070;2023-12-20T12:46:40;7.00;99.90
16966;DHT22;8599;47.852;12.070;2023-12-20T12:49:07;7.00;99.90
16966;DHT22;8599;47.852;12.070;2023-12-20T12:51:35;7.00;99.90
16966;DHT22;8599;47.852;12.070;2023-12-20T12:54:03;7.00;99.90
16966;DHT22;8599;47.852;12.070;2023-12-20T12:56:30;6.90;99.90
16966;DHT22;8599;47.852;12.070;2023-12-20T12:58:57;6.90;99.90
16966;DHT22;8599;47.852;12.070;2023-12-20T13:01:23;7.00;99.90
16966;DHT22;8599;47.852;12.070;2023-12-20T13:03:50;7.10;99.90
16966;DHT22;8599;47.852;12.070;2023-12-20T13:06:17;7.00;99.90
16966;DHT22;8599;47.852;12.070;2023-12-20T13:08:45;7.10;99.90
16966;DHT22;8599;47.852;12.070;2023-12-20T13:11:12;7.00;99.90
16966;DHT22;8599;47.852;12.070;2023-12-20T13:13:39;6.90;99.90
16966;DHT22;8599;47.852;12.070;2023-12-20T13:16:07;7.00;99.90
16966;DHT22;8599;47.852;12.070;2023-12-20T13:18:34;7.00;99.90
16966;DHT22;8599;47.852;12.070;2023-12-20T13:21:01;7.00;99.90
16966;DHT22;8599;47.852;12.070;2023-12-20T13:23:28;7.10;99.90
16966;DHT22;8599;47.852;12.070;2023-12-20T13:25:56;7.00;99.90
16966;DHT22;8599;47.852;12.070;2023-12-20T13:28:23;7.00;99.90
16966;DHT22;8599;47.852;12.070;2023-12-20T13:30:50;7.20;99.90
16966;DHT22;8599;47.852;12.070;2023-12-20T13:33:17;7.20;99.90
16966;DHT22;8599;47.852;12.070;2023-12-20T13:35:44;7.20;99.90
16966;DHT22;8599;47.852;12.070;2023-12-20T13:38:12;7.10;99.90
16966;DHT22;8599;47.852;12.070;2023-12-20T13:40:39;7.10;99.90
16966;DHT22;8599;47.852;12.070;2023-12-20T13:43:08;7.00;99.90
16966;DHT22;8599;47.852;12.070;2023-12-20T13:45:36;7.10;99.90
16966;DHT22;8599;47.852;12.070;2023-12-20T13:48:03;7.10;99.90
16966;DHT22;8599;47.852;12.070;2023-12-20T13:50:30;7.10;99.90
16966;DHT22;8599;47.852;12.070;2023-12-20T13:52:57;7.20;99.90
16966;DHT22;8599;47.852;12.070;2023-12-20T13:55:23;7.20;99.90
16966;DHT22;8599;47.852;12.070;2023-12-20T13:57:53;7.10;99.90
16966;DHT22;8599;47.852;12.070;2023-12-20T14:00:21;7.10;99.90
16966;DHT22;8599;47.852;12.070;2023-12-20T14:02:48;7.20;99.90
16966;DHT22;8599;47.852;12.070;2023-12-20T14:05:15;7.20;99.90
16966;DHT22;8599;47.852;12.070;2023-12-20T14:07:43;7.20;99.90
16966;DHT22;8599;47.852;12.070;2023-12-20T14:10:11;7.20;99.90
16966;DHT22;8599;47.852;12.070;2023-12-20T14:12:38;7.10;99.90
16966;DHT22;8599;47.852;12.070;2023-12-20T14:15:06;7.10;99.90
16966;DHT22;8599;47.852;12.070;2023-12-20T14:17:37;7.00;99.90
16966;DHT22;8599;47.852;12.070;2023-12-20T14:20:06;7.00;99.90
16966;DHT22;8599;47.852;12.070;2023-12-20T14:22:33;7.10;99.90
16966;DHT22;8599;47.852;12.070;2023-12-20T14:25:00;7.20;99.90
16966;DHT22;8599;47.852;12.070;2023-12-20T14:27:27;7.30;99.90
16966;DHT22;8599;47.852;12.070;2023-12-20T14:29:54;7.30;99.90
16966;DHT22;8599;47.852;12.070;2023-12-20T14:32:21;7.20;99.90
16966;DHT22;8599;47.852;12.070;2023-12-20T14:34:49;7.40;99.90
16966;DHT22;8599;47.852;12.070;2023-12-20T14:37:15;7.40;99.90
16966;DHT22;8599;47.852;12.070;2023-12-20T14:39:43;7.30;99.90
16966;DHT22;8599;47.852;12.070;2023-12-20T14:42:10;7.20;99.90
16966;DHT22;8599;47.852;12.070;2023-12-20T14:44:39;7.10;99.90
16966;DHT22;8599;47.852;12.070;2023-12-20T14:47:06;7.00;99.90
16966;DHT22;8599;47.852;12.070;2023-12-20T14:49:33;7.20;99.90
16966;DHT22;8599;47.852;12.070;2023-12-20T14:52:02;7.00;99.90
16966;DHT22;8599;47.852;12.070;2023-12-20T14:54:29;6.80;99.90
16966;DHT22;8599;47.852;12.070;2023-12-20T14:56:57;6.50;99.90
16966;DHT22;8599;47.852;12.070;2023-12-20T14:59:24;6.20;99.90
16966;DHT22;8599;47.852;12.070;2023-12-20T15:01:51;5.90;99.90
16966;DHT22;8599;47.852;12.070;2023-12-20T15:04:18;5.70;99.90
16966;DHT22;8599;47.852;12.070;2023-12-20T15:06:51;5.60;99.90
16966;DHT22;8599;47.852;12.070;2023-12-20T15:09:19;5.40;99.90
16966;DHT22;8599;47.852;12.070;2023-12-20T15:11:46;5.40;99.90
16966;DHT22;8599;47.852;12.070;2023-12-20T15:14:13;5.30;99.90
16966;DHT22;8599;47.852;12.070;2023-12-20T15:16:44;5.30;99.90
16966;DHT22;8599;47.852;12.070;2023-12-20T15:19:12;5.30;99.90
16966;DHT22;8599;47.852;12.070;2023-12-20T15:21:39;5.40;99.90
16966;DHT22;8599;47.852;12.070;2023-12-20T15:24:07;5.40;99.90
16966;DHT22;8599;47.852;12.070;2023-12-20T15:26:42;5.30;99.90
16966;DHT22;8599;47.852;12.070;2023-12-20T15:29:09;5.30;99.90
16966;DHT22;8599;47.852;12.070;2023-12-20T15:31:42;5.30;99.90
16966;DHT22;8599;47.852;12.070;2023-12-20T15:34:09;5.30;99.90
16966;DHT22;8599;47.852;12.070;2023-12-20T15:36:36;5.20;99.90
16966;DHT22;8599;47.852;12.070;2023-12-20T15:39:02;5.20;99.90
16966;DHT22;8599;47.852;12.070;2023-12-20T15:41:30;5.10;99.90
16966;DHT22;8599;47.852;12.070;2023-12-20T15:43:58;5.10;99.90
16966;DHT22;8599;47.852;12.070;2023-12-20T15:46:25;5.10;99.90